Time;durP1;ratioP1;P1;durP2;ratioP2;P2;SDS_P1;SDS_P2;PMS_P1;PMS_P2;Temp;Humidity;BMP_temperature;BMP_pressure;BME280_temperature;BME280_humidity;BME280_pressure;Samples;Min_cycle;Max_cycle;Signal;HPM_P1;HPM_P2
2021/05/03 00:00:47;;;;;;;6.05;2.80;;;;;;;;;;5038597;28;20226;-55
2021/05/03 00:03:18;;;;;;;9.55;3.92;;;;;;;;;;5054867;28;20219;-59
2021/05/03 00:05:46;;;;;;;4.25;2.72;;;;;;;;;;5054757;28;20263;-55
2021/05/03 00:08:15;;;;;;;7.85;3.08;;;;;;;;;;5053341;28;20222;-55
2021/05/03 00:10:45;;;;;;;5.25;3.10;;;;;;;;;;5058465;28;20574;-58
2021/05/03 00:13:13;;;;;;;5.60;3.28;;;;;;;;;;5057837;28;20212;-52
2021/05/03 00:15:40;;;;;;;4.60;2.55;;;;;;;;;;5045785;28;20226;-52
2021/05/03 00:18:06;;;;;;;5.18;2.95;;;;;;;;;;5057132;28;20219;-56
2021/05/03 00:20:34;;;;;;;4.15;2.70;;;;;;;;;;5057400;28;20222;-54
2021/05/03 00:23:20;;;;;;;4.90;2.72;;;;;;;;;;5057859;28;20430;-56
2021/05/03 00:25:47;;;;;;;5.15;2.95;;;;;;;;;;5056977;28;20203;-57
2021/05/03 00:28:14;;;;;;;5.30;3.05;;;;;;;;;;5048156;28;20199;-54
2021/05/03 00:30:48;;;;;;;4.32;2.10;;;;;;;;;;5057538;28;20199;-46
2021/05/03 00:33:15;;;;;;;4.40;2.83;;;;;;;;;;5045108;28;20301;-54
2021/05/03 00:35:43;;;;;;;3.42;2.20;;;;;;;;;;5077026;28;20211;-59
2021/05/03 00:38:10;;;;;;;7.10;2.65;;;;;;;;;;5076387;28;20214;-59
2021/05/03 00:40:36;;;;;;;4.20;2.40;;;;;;;;;;5077718;28;20183;-55
2021/05/03 00:43:03;;;;;;;7.00;2.75;;;;;;;;;;5077035;28;20215;-59
2021/05/03 00:45:36;;;;;;;5.55;2.75;;;;;;;;;;5076673;28;20523;-58
2021/05/03 00:48:04;;;;;;;6.90;2.78;;;;;;;;;;5058133;28;20200;-53
2021/05/03 00:50:31;;;;;;;6.18;2.85;;;;;;;;;;5037696;28;20199;-57
2021/05/03 00:52:58;;;;;;;7.22;3.45;;;;;;;;;;5036781;28;20204;-51
2021/05/03 00:55:27;;;;;;;5.07;2.40;;;;;;;;;;5036970;28;20501;-53
2021/05/03 00:57:55;;;;;;;5.65;3.53;;;;;;;;;;5037985;28;20224;-60
2021/05/03 01:00:29;;;;;;;5.50;2.83;;;;;;;;;;5054021;28;20212;-56
2021/05/03 01:02:56;;;;;;;4.20;2.65;;;;;;;;;;5057426;28;20199;-58
2021/05/03 01:05:22;;;;;;;4.28;2.22;;;;;;;;;;5056773;28;20273;-52
2021/05/03 01:07:51;;;;;;;8.20;2.90;;;;;;;;;;5057155;28;20219;-56
2021/05/03 01:10:19;;;;;;;4.40;2.22;;;;;;;;;;5057044;28;20199;-52
2021/05/03 01:12:48;;;;;;;6.25;2.35;;;;;;;;;;5069401;28;20211;-57
2021/05/03 01:15:22;;;;;;;6.43;2.60;;;;;;;;;;5062063;28;20207;-51
2021/05/03 01:17:54;;;;;;;5.90;2.33;;;;;;;;;;5052995;28;20262;-49
2021/05/03 01:20:31;;;;;;;10.40;3.15;;;;;;;;;;5056903;28;20215;-52
2021/05/03 01:22:59;;;;;;;4.93;2.80;;;;;;;;;;5056541;28;20195;-56
2021/05/03 01:25:28;;;;;;;6.55;2.78;;;;;;;;;;5076791;28;20210;-56
2021/05/03 01:28:13;;;;;;;6.00;2.95;;;;;;;;;;5076655;28;20191;-56
2021/05/03 01:30:40;;;;;;;5.57;3.00;;;;;;;;;;5076885;28;20213;-57
2021/05/03 01:33:08;;;;;;;4.40;2.78;;;;;;;;;;5076225;28;20215;-52
2021/05/03 01:35:43;;;;;;;5.43;2.90;;;;;;;;;;5095651;28;20246;-48
2021/05/03 01:38:11;;;;;;;6.25;2.80;;;;;;;;;;5096392;28;20233;-54
2021/05/03 01:40:40;;;;;;;10.23;3.33;;;;;;;;;;5096650;28;20202;-55
2021/05/03 01:43:16;;;;;;;6.00;3.15;;;;;;;;;;5096139;28;20233;-52
2021/05/03 01:45:44;;;;;;;6.93;3.17;;;;;;;;;;5096639;28;20223;-54
2021/05/03 01:48:12;;;;;;;6.32;3.22;;;;;;;;;;5096158;28;20225;-55
2021/05/03 01:50:39;;;;;;;7.20;3.28;;;;;;;;;;5096493;28;20257;-52
2021/05/03 01:53:07;;;;;;;6.18;3.85;;;;;;;;;;5097032;28;20217;-57
2021/05/03 01:55:42;;;;;;;4.13;2.25;;;;;;;;;;5096597;28;20216;-55
2021/05/03 01:58:09;;;;;;;8.77;3.47;;;;;;;;;;5095860;28;20226;-58
2021/05/03 02:00:36;;;;;;;6.55;3.10;;;;;;;;;;5096662;28;20210;-57
2021/05/03 02:03:04;;;;;;;8.95;2.85;;;;;;;;;;5096107;28;20281;-52
2021/05/03 02:05:30;;;;;;;6.80;3.78;;;;;;;;;;5095937;28;20216;-58
2021/05/03 02:07:58;;;;;;;6.63;3.53;;;;;;;;;;5095662;28;20178;-53
2021/05/03 02:10:25;;;;;;;4.35;2.97;;;;;;;;;;5095657;28;20198;-50
2021/05/03 02:12:53;;;;;;;5.35;3.97;;;;;;;;;;5095874;28;20220;-56
2021/05/03 02:15:20;;;;;;;5.10;3.22;;;;;;;;;;5096084;28;20256;-53
2021/05/03 02:17:49;;;;;;;4.15;2.70;;;;;;;;;;5083642;28;20219;-55
2021/05/03 02:20:16;;;;;;;5.20;2.88;;;;;;;;;;5075277;28;20211;-50
2021/05/03 02:22:43;;;;;;;4.82;2.60;;;;;;;;;;5075175;28;20203;-58
2021/05/03 02:25:24;;;;;;;8.73;3.28;;;;;;;;;;5075489;28;20203;-51
2021/05/03 02:27:50;;;;;;;6.55;3.15;;;;;;;;;;5075799;28;20286;-56
2021/05/03 02:30:18;;;;;;;7.72;4.85;;;;;;;;;;5075356;28;20206;-57
2021/05/03 02:33:12;;;;;;;12.40;4.18;;;;;;;;;;5075630;28;20210;-54
2021/05/03 02:35:39;;;;;;;7.53;4.10;;;;;;;;;;5059832;28;20219;-50
2021/05/03 02:38:08;;;;;;;4.95;2.90;;;;;;;;;;5056017;28;20215;-55
2021/05/03 02:40:37;;;;;;;12.60;4.25;;;;;;;;;;5055653;28;20218;-57
2021/05/03 02:43:05;;;;;;;7.15;3.88;;;;;;;;;;5055425;28;20266;-58
2021/05/03 02:45:33;;;;;;;5.45;3.15;;;;;;;;;;5055310;28;20191;-56
2021/05/03 02:48:11;;;;;;;6.57;3.75;;;;;;;;;;5055042;28;20210;-51
2021/05/03 02:50:37;;;;;;;8.23;3.67;;;;;;;;;;5054959;28;20235;-57
2021/05/03 02:53:04;;;;;;;4.57;3.03;;;;;;;;;;5055477;28;20211;-52
2021/05/03 02:55:38;;;;;;;5.28;3.25;;;;;;;;;;5054965;28;20203;-54
2021/05/03 02:58:06;;;;;;;5.85;3.22;;;;;;;;;;5054900;28;20234;-53
2021/05/03 03:00:35;;;;;;;5.30;4.03;;;;;;;;;;5055129;28;20205;-53
2021/05/03 03:03:08;;;;;;;7.03;3.60;;;;;;;;;;5055227;28;20203;-53
2021/05/03 03:05:35;;;;;;;5.78;2.90;;;;;;;;;;5054748;28;20211;-60
2021/05/03 03:08:02;;;;;;;7.05;3.50;;;;;;;;;;5054850;28;20199;-59
2021/05/03 03:10:53;;;;;;;7.78;3.05;;;;;;;;;;5055097;28;20199;-51
2021/05/03 03:13:20;;;;;;;5.93;3.28;;;;;;;;;;5055085;28;20195;-56
2021/05/03 03:15:51;;;;;;;7.05;3.83;;;;;;;;;;5054988;28;20497;-55
2021/05/03 03:18:18;;;;;;;5.72;3.35;;;;;;;;;;5055679;28;20278;-55
2021/05/03 03:20:45;;;;;;;4.93;3.15;;;;;;;;;;5075639;28;20293;-57
2021/05/03 03:23:15;;;;;;;4.93;2.95;;;;;;;;;;5075060;28;20210;-55
2021/05/03 03:25:42;;;;;;;7.88;2.63;;;;;;;;;;5074695;28;20214;-46
2021/05/03 03:28:09;;;;;;;4.40;2.90;;;;;;;;;;5075287;28;20262;-54
2021/05/03 03:30:36;;;;;;;7.80;3.47;;;;;;;;;;5075162;28;20202;-58
2021/05/03 03:33:03;;;;;;;6.75;3.40;;;;;;;;;;5079483;28;20194;-55
2021/05/03 03:35:41;;;;;;;5.85;3.53;;;;;;;;;;5069137;28;20203;-55
2021/05/03 03:38:07;;;;;;;6.05;3.60;;;;;;;;;;5094098;28;20236;-56
2021/05/03 03:40:34;;;;;;;8.85;4.40;;;;;;;;;;5094946;28;20206;-61
2021/05/03 03:43:01;;;;;;;6.47;3.97;;;;;;;;;;5097731;28;20204;-53
2021/05/03 03:45:28;;;;;;;7.90;4.45;;;;;;;;;;5098519;28;20210;-57
2021/05/03 03:48:27;;;;;;;8.90;4.05;;;;;;;;;;5098798;28;20198;-55
2021/05/03 03:50:56;;;;;;;7.10;4.18;;;;;;;;;;5098639;28;20202;-54
2021/05/03 03:53:23;;;;;;;8.73;4.47;;;;;;;;;;5098540;28;20353;-57
2021/05/03 03:56:00;;;;;;;6.65;3.63;;;;;;;;;;5092168;28;20210;-62
2021/05/03 03:58:27;;;;;;;6.28;3.58;;;;;;;;;;5078639;28;20256;-57
2021/05/03 04:00:54;;;;;;;6.35;4.43;;;;;;;;;;5078179;28;20207;-58
2021/05/03 04:03:24;;;;;;;12.60;4.10;;;;;;;;;;5078501;28;20206;-56
2021/05/03 04:08:50;;;;;;;7.70;4.30;;;;;;;;;;5057357;28;20226;-49
2021/05/03 04:11:27;;;;;;;9.80;3.90;;;;;;;;;;5057678;28;20210;-51
2021/05/03 04:22:46;;;;;;;5.38;4.32;;;;;;;;;;5023271;28;20207;-48
2021/05/03 04:25:18;;;;;;;9.48;5.65;;;;;;;;;;5065706;28;20194;-61
2021/05/03 04:28:02;;;;;;;10.05;5.07;;;;;;;;;;5077966;28;20226;-55
2021/05/03 04:30:29;;;;;;;10.02;6.10;;;;;;;;;;5077928;28;20211;-61
2021/05/03 04:32:56;;;;;;;10.18;5.78;;;;;;;;;;5077467;28;20258;-53
2021/05/03 04:35:44;;;;;;;8.55;5.72;;;;;;;;;;5077451;28;20233;-58
2021/05/03 04:38:11;;;;;;;10.00;6.13;;;;;;;;;;5077481;28;20218;-54
2021/05/03 04:40:40;;;;;;;11.10;7.10;;;;;;;;;;5077623;28;20213;-56
2021/05/03 04:43:26;;;;;;;14.23;5.40;;;;;;;;;;5077242;28;20237;-52
2021/05/03 04:45:53;;;;;;;11.25;5.20;;;;;;;;;;5075305;28;20230;-57
2021/05/03 04:48:22;;;;;;;14.20;6.97;;;;;;;;;;5077197;28;20502;-54
2021/05/03 04:51:25;;;;;;;12.60;6.30;;;;;;;;;;5077119;28;20210;-54
2021/05/03 04:53:52;;;;;;;9.68;6.20;;;;;;;;;;5075100;28;20421;-58
2021/05/03 04:56:20;;;;;;;8.70;5.18;;;;;;;;;;5076789;28;20195;-57
2021/05/03 04:59:14;;;;;;;8.32;5.32;;;;;;;;;;5077422;28;20209;-58
2021/05/03 05:01:41;;;;;;;10.43;5.53;;;;;;;;;;5068363;28;20226;-53
2021/05/03 05:04:09;;;;;;;15.73;7.35;;;;;;;;;;5076529;28;20206;-63
2021/05/03 05:07:00;;;;;;;8.50;5.47;;;;;;;;;;5077348;28;20234;-58
2021/05/03 05:09:26;;;;;;;18.60;5.78;;;;;;;;;;5074753;28;20201;-62
2021/05/03 05:11:54;;;;;;;11.80;6.63;;;;;;;;;;5077439;28;20213;-53
2021/05/03 05:14:33;;;;;;;8.70;5.35;;;;;;;;;;5073962;28;20211;-59
2021/05/03 05:17:00;;;;;;;7.43;6.05;;;;;;;;;;5072946;28;20237;-58
2021/05/03 05:19:27;;;;;;;11.65;6.13;;;;;;;;;;5076311;28;20202;-58
2021/05/03 05:22:01;;;;;;;14.90;6.80;;;;;;;;;;5076636;28;20206;-57
2021/05/03 05:24:28;;;;;;;9.30;6.10;;;;;;;;;;5076061;28;20209;-53
2021/05/03 05:26:56;;;;;;;12.00;5.90;;;;;;;;;;5076678;28;20194;-54
2021/05/03 05:29:33;;;;;;;8.43;6.72;;;;;;;;;;5075802;28;20203;-59
2021/05/03 05:32:01;;;;;;;11.15;6.20;;;;;;;;;;5076045;28;20210;-49
2021/05/03 05:34:28;;;;;;;9.00;5.93;;;;;;;;;;5075291;28;20225;-61
2021/05/03 05:39:58;;;;;;;14.23;6.97;;;;;;;;;;5074726;28;20248;-54
2021/05/03 05:42:27;;;;;;;9.13;6.40;;;;;;;;;;5074999;28;20222;-59
2021/05/03 05:44:54;;;;;;;15.07;7.05;;;;;;;;;;5075637;28;20214;-54
2021/05/03 05:47:21;;;;;;;11.75;7.00;;;;;;;;;;5074798;28;20218;-61
2021/05/03 05:50:18;;;;;;;10.63;6.22;;;;;;;;;;5074733;28;20224;-57
2021/05/03 05:52:45;;;;;;;13.55;6.20;;;;;;;;;;5054882;28;20208;-51
2021/05/03 05:55:12;;;;;;;11.07;6.22;;;;;;;;;;5068100;28;20217;-58
2021/05/03 05:57:46;;;;;;;10.50;5.88;;;;;;;;;;5074469;28;20267;-56
2021/05/03 06:00:14;;;;;;;12.02;7.43;;;;;;;;;;5074444;28;20214;-55
2021/05/03 06:02:40;;;;;;;10.38;8.07;;;;;;;;;;5073842;28;20202;-56
2021/05/03 06:05:15;;;;;;;11.98;7.45;;;;;;;;;;5074483;28;20211;-59
2021/05/03 06:07:43;;;;;;;7.90;6.35;;;;;;;;;;5073473;28;20190;-59
2021/05/03 06:10:12;;;;;;;10.48;6.20;;;;;;;;;;5074876;28;20198;-54
2021/05/03 06:12:52;;;;;;;10.43;6.65;;;;;;;;;;5074069;28;20213;-58
2021/05/03 06:15:26;;;;;;;9.82;6.15;;;;;;;;;;5074156;28;20207;-56
2021/05/03 06:17:56;;;;;;;7.70;6.40;;;;;;;;;;5074766;28;20222;-47
2021/05/03 06:20:22;;;;;;;16.73;7.35;;;;;;;;;;5074191;28;20242;-60
2021/05/03 06:22:50;;;;;;;13.25;6.15;;;;;;;;;;5074185;28;20201;-60
2021/05/03 06:25:37;;;;;;;10.30;5.85;;;;;;;;;;5073635;28;20234;-55
2021/05/03 06:28:07;;;;;;;8.10;5.53;;;;;;;;;;5072562;28;20211;-59
2021/05/03 06:30:34;;;;;;;13.02;6.55;;;;;;;;;;5073120;28;20209;-50
2021/05/03 06:33:01;;;;;;;17.70;6.30;;;;;;;;;;5073319;28;20217;-52
2021/05/03 06:35:28;;;;;;;9.00;5.57;;;;;;;;;;5073271;28;20186;-60
2021/05/03 06:38:06;;;;;;;9.45;6.05;;;;;;;;;;5073982;28;20227;-53
2021/05/03 06:40:32;;;;;;;11.00;6.85;;;;;;;;;;5053428;28;20211;-55
2021/05/03 06:43:00;;;;;;;6.88;5.15;;;;;;;;;;5053671;28;20188;-50
2021/05/03 06:45:37;;;;;;;10.90;6.55;;;;;;;;;;5052899;28;20209;-59
2021/05/03 06:48:07;;;;;;;7.75;5.65;;;;;;;;;;5052591;28;20206;-61
2021/05/03 06:50:34;;;;;;;12.90;6.22;;;;;;;;;;5052718;28;20211;-52
2021/05/03 06:53:04;;;;;;;13.23;5.30;;;;;;;;;;5052995;28;20195;-53
2021/05/03 06:55:31;;;;;;;8.47;5.47;;;;;;;;;;5053276;28;20458;-61
2021/05/03 06:57:59;;;;;;;10.73;5.25;;;;;;;;;;5052825;28;20485;-54
2021/05/03 07:00:40;;;;;;;14.32;6.82;;;;;;;;;;5044000;28;20219;-59
2021/05/03 07:03:09;;;;;;;8.88;5.95;;;;;;;;;;5059244;28;20187;-55
2021/05/03 07:05:40;;;;;;;11.50;6.70;;;;;;;;;;5047556;28;20191;-59
2021/05/03 07:08:18;;;;;;;9.77;6.90;;;;;;;;;;5053405;28;20222;-55
2021/05/03 07:10:46;;;;;;;10.80;6.70;;;;;;;;;;5057019;28;20472;-58
2021/05/03 07:13:26;;;;;;;13.70;6.40;;;;;;;;;;5073265;28;20197;-59
2021/05/03 07:16:02;;;;;;;14.43;7.90;;;;;;;;;;5074469;28;20444;-58
2021/05/03 07:18:29;;;;;;;10.13;7.40;;;;;;;;;;5075886;28;20476;-58
2021/05/03 07:20:56;;;;;;;10.40;6.70;;;;;;;;;;5075082;28;20489;-57
2021/05/03 07:23:23;;;;;;;10.43;6.10;;;;;;;;;;5076336;28;20205;-47
2021/05/03 07:25:52;;;;;;;12.90;6.90;;;;;;;;;;5075829;28;20190;-53
2021/05/03 07:28:27;;;;;;;7.67;5.90;;;;;;;;;;5068114;28;20433;-60
2021/05/03 07:30:58;;;;;;;8.33;6.23;;;;;;;;;;5076597;28;20467;-56
2021/05/03 07:33:44;;;;;;;12.80;6.13;;;;;;;;;;5076219;28;20441;-56
2021/05/03 07:36:26;;;;;;;12.47;6.77;;;;;;;;;;5076341;28;20495;-53
2021/05/03 07:38:53;;;;;;;10.97;7.80;;;;;;;;;;5075249;28;20479;-57
2021/05/03 07:41:37;;;;;;;11.13;6.23;;;;;;;;;;5070347;28;20491;-54
2021/05/03 07:44:07;;;;;;;7.10;5.30;;;;;;;;;;5090054;28;20765;-58
2021/05/03 07:46:34;;;;;;;9.63;6.47;;;;;;;;;;5074832;28;20461;-52
2021/05/03 07:49:02;;;;;;;6.27;5.10;;;;;;;;;;5075423;28;20460;-52
2021/05/03 07:51:29;;;;;;;8.80;5.90;;;;;;;;;;5074499;28;20472;-58
2021/05/03 07:54:02;;;;;;;6.57;5.23;;;;;;;;;;5076199;28;20480;-51
2021/05/03 07:56:31;;;;;;;13.80;7.97;;;;;;;;;;5094163;28;20436;-56
2021/05/03 07:59:00;;;;;;;8.40;5.67;;;;;;;;;;5095394;28;20476;-57
2021/05/03 08:01:30;;;;;;;11.20;5.30;;;;;;;;;;5096230;28;20512;-48
2021/05/03 08:03:59;;;;;;;9.23;5.57;;;;;;;;;;5096086;28;20436;-61
2021/05/03 08:06:29;;;;;;;7.37;5.33;;;;;;;;;;5095296;28;20523;-59
2021/05/03 08:09:05;;;;;;;10.00;5.00;;;;;;;;;;5094430;28;20455;-58
2021/05/03 08:11:34;;;;;;;8.10;5.20;;;;;;;;;;5094504;28;20680;-58
2021/05/03 08:14:02;;;;;;;9.50;5.10;;;;;;;;;;5095909;28;20466;-55
2021/05/03 08:16:42;;;;;;;10.90;4.80;;;;;;;;;;5094429;28;20460;-60
2021/05/03 08:19:09;;;;;;;11.70;4.70;;;;;;;;;;5095297;28;20554;-58
2021/05/03 08:21:38;;;;;;;7.67;4.90;;;;;;;;;;5094604;28;20459;-60
2021/05/03 08:24:06;;;;;;;6.07;4.23;;;;;;;;;;5094664;28;20886;-57
2021/05/03 08:26:35;;;;;;;9.00;5.40;;;;;;;;;;5081187;28;20425;-61
2021/05/03 08:29:02;;;;;;;8.93;4.23;;;;;;;;;;5093657;28;20448;-60
2021/05/03 08:31:44;;;;;;;8.30;5.27;;;;;;;;;;5094456;28;20460;-58
2021/05/03 08:34:11;;;;;;;8.00;4.23;;;;;;;;;;5090711;28;20446;-58
2021/05/03 08:36:40;;;;;;;7.17;3.90;;;;;;;;;;5094597;28;20444;-55
2021/05/03 08:39:09;;;;;;;7.17;3.93;;;;;;;;;;5093996;28;20433;-53
2021/05/03 08:41:36;;;;;;;8.10;3.57;;;;;;;;;;5094974;28;20452;-50
2021/05/03 08:44:04;;;;;;;9.07;5.37;;;;;;;;;;5093957;28;20475;-59
2021/05/03 08:46:46;;;;;;;5.13;2.93;;;;;;;;;;5094036;28;20638;-54
2021/05/03 08:49:17;;;;;;;6.63;3.00;;;;;;;;;;5094371;28;20464;-56
2021/05/03 08:51:52;;;;;;;4.07;3.00;;;;;;;;;;5094253;28;20460;-53
2021/05/03 08:54:26;;;;;;;7.10;3.70;;;;;;;;;;5074439;28;20448;-58
2021/05/03 08:56:53;;;;;;;4.80;2.90;;;;;;;;;;5094161;28;20499;-59
2021/05/03 08:59:49;;;;;;;6.40;3.07;;;;;;;;;;5092609;28;20478;-55
2021/05/03 09:02:18;;;;;;;9.67;4.53;;;;;;;;;;5093968;28;20484;-50
2021/05/03 09:04:49;;;;;;;8.07;4.40;;;;;;;;;;5093502;28;20516;-57
2021/05/03 09:07:21;;;;;;;7.30;3.17;;;;;;;;;;5094538;28;20456;-56
2021/05/03 09:09:49;;;;;;;6.30;2.63;;;;;;;;;;5093879;28;20486;-53
2021/05/03 09:12:22;;;;;;;6.33;2.90;;;;;;;;;;5092832;28;20464;-59
2021/05/03 09:14:51;;;;;;;7.27;3.40;;;;;;;;;;5092879;28;20456;-58
2021/05/03 09:17:28;;;;;;;5.93;2.93;;;;;;;;;;5092812;28;20487;-57
2021/05/03 09:20:08;;;;;;;7.73;3.10;;;;;;;;;;5094245;28;20607;-55
2021/05/03 09:22:44;;;;;;;7.23;3.23;;;;;;;;;;5093192;28;20443;-57
2021/05/03 09:25:49;;;;;;;7.30;3.30;;;;;;;;;;5094770;28;20487;-56
2021/05/03 09:28:28;;;;;;;6.60;3.17;;;;;;;;;;5083394;28;20483;-57
2021/05/03 09:30:59;;;;;;;6.70;3.90;;;;;;;;;;5093522;28;20456;-57
2021/05/03 09:33:27;;;;;;;5.00;3.07;;;;;;;;;;5093020;28;20733;-56
2021/05/03 09:35:57;;;;;;;5.00;3.73;;;;;;;;;;5093610;28;20462;-52
2021/05/03 09:38:33;;;;;;;7.47;3.70;;;;;;;;;;5086240;28;20507;-57
2021/05/03 09:41:30;;;;;;;6.67;4.13;;;;;;;;;;5094695;28;20462;-59
2021/05/03 09:44:08;;;;;;;5.07;2.97;;;;;;;;;;5093919;28;20481;-55
2021/05/03 09:46:36;;;;;;;8.23;4.10;;;;;;;;;;5093437;28;20456;-58
2021/05/03 09:49:05;;;;;;;12.20;4.20;;;;;;;;;;5093969;28;20491;-59
2021/05/03 09:51:35;;;;;;;5.60;3.10;;;;;;;;;;5093354;28;20714;-56
2021/05/03 09:54:04;;;;;;;7.30;3.53;;;;;;;;;;5085233;28;20475;-56
2021/05/03 09:57:03;;;;;;;9.43;3.90;;;;;;;;;;5072649;28;20438;-58
2021/05/03 09:59:40;;;;;;;6.80;4.00;;;;;;;;;;5082029;28;20452;-56
2021/05/03 10:02:10;;;;;;;6.90;4.40;;;;;;;;;;5093894;28;20530;-53
2021/05/03 10:04:38;;;;;;;9.40;4.07;;;;;;;;;;5092452;28;20456;-58
2021/05/03 10:07:12;;;;;;;7.77;5.20;;;;;;;;;;5092483;28;20452;-54
2021/05/03 10:09:42;;;;;;;6.73;3.43;;;;;;;;;;5093338;28;20451;-54
2021/05/03 10:12:09;;;;;;;11.30;4.90;;;;;;;;;;5094148;28;20752;-60
2021/05/03 10:14:54;;;;;;;5.90;3.77;;;;;;;;;;5094580;28;20572;-56
2021/05/03 10:17:37;;;;;;;5.50;4.00;;;;;;;;;;5093376;28;20537;-52
2021/05/03 10:20:13;;;;;;;6.70;3.73;;;;;;;;;;5093721;28;20614;-53
2021/05/03 10:22:41;;;;;;;6.83;4.63;;;;;;;;;;5092797;28;20515;-54
2021/05/03 10:25:11;;;;;;;5.00;3.23;;;;;;;;;;5092728;28;20456;-55
2021/05/03 10:27:40;;;;;;;6.47;3.73;;;;;;;;;;5091270;28;20534;-53
2021/05/03 10:30:09;;;;;;;6.70;3.90;;;;;;;;;;5091756;28;20480;-56
2021/05/03 10:32:59;;;;;;;4.60;3.20;;;;;;;;;;5092341;28;20416;-58
2021/05/03 10:35:27;;;;;;;5.20;3.33;;;;;;;;;;5092227;28;20543;-56
2021/05/03 10:37:54;;;;;;;5.27;3.73;;;;;;;;;;5087744;28;20477;-58
2021/05/03 10:40:48;;;;;;;6.03;4.20;;;;;;;;;;5089939;28;20800;-54
2021/05/03 10:43:20;;;;;;;8.27;4.00;;;;;;;;;;5092567;28;20440;-53
2021/05/03 10:49:00;;;;;;;6.90;4.10;;;;;;;;;;5090852;28;20913;-57
2021/05/03 10:51:40;;;;;;;10.90;4.40;;;;;;;;;;5091402;28;20548;-53
2021/05/03 10:54:29;;;;;;;6.57;3.57;;;;;;;;;;5092432;28;20424;-55
2021/05/03 10:57:06;;;;;;;7.33;4.40;;;;;;;;;;5079285;28;20500;-60
2021/05/03 10:59:56;;;;;;;5.50;3.30;;;;;;;;;;5073655;28;20464;-56
2021/05/03 11:02:25;;;;;;;5.87;4.20;;;;;;;;;;5072612;28;20464;-53
2021/05/03 11:05:14;;;;;;;5.13;3.40;;;;;;;;;;5071084;28;20453;-59
2021/05/03 11:08:00;;;;;;;9.10;3.60;;;;;;;;;;5066653;28;20452;-59
2021/05/03 11:10:49;;;;;;;6.00;3.20;;;;;;;;;;5071956;28;20438;-56
2021/05/03 11:13:34;;;;;;;6.90;4.50;;;;;;;;;;5074130;28;20554;-54
2021/05/03 11:16:30;;;;;;;10.27;3.90;;;;;;;;;;5082430;28;20475;-59
2021/05/03 11:19:01;;;;;;;4.90;3.53;;;;;;;;;;5018370;28;20481;-57
2021/05/03 11:21:41;;;;;;;7.40;3.70;;;;;;;;;;5072306;28;20508;-56
2021/05/03 11:24:15;;;;;;;8.40;4.23;;;;;;;;;;5072339;28;20531;-60
2021/05/03 11:26:48;;;;;;;6.37;3.50;;;;;;;;;;5072162;28;20517;-59
2021/05/03 11:29:20;;;;;;;4.97;3.60;;;;;;;;;;5060836;28;20470;-59
2021/05/03 11:31:48;;;;;;;7.00;3.53;;;;;;;;;;5058448;28;20516;-57
2021/05/03 11:34:23;;;;;;;6.63;3.30;;;;;;;;;;5072149;28;20465;-59
2021/05/03 11:37:03;;;;;;;6.07;3.47;;;;;;;;;;5071627;28;20464;-57
2021/05/03 11:39:47;;;;;;;4.53;3.30;;;;;;;;;;5090763;28;20509;-58
2021/05/03 11:45:16;;;;;;;4.77;3.23;;;;;;;;;;5082107;28;20432;-57
2021/05/03 11:48:14;;;;;;;6.83;2.97;;;;;;;;;;5092699;28;20464;-59
2021/05/03 11:50:41;;;;;;;4.63;3.17;;;;;;;;;;5092906;28;20460;-55
2021/05/03 11:53:08;;;;;;;5.30;3.10;;;;;;;;;;5093109;28;20482;-60
2021/05/03 11:55:35;;;;;;;5.57;3.40;;;;;;;;;;5091519;28;20436;-60
2021/05/03 11:58:02;;;;;;;6.77;3.97;;;;;;;;;;5091393;28;20480;-55
2021/05/03 12:00:33;;;;;;;5.97;4.00;;;;;;;;;;5092103;28;20448;-60
2021/05/03 12:03:01;;;;;;;8.43;4.50;;;;;;;;;;5092351;28;20546;-56
2021/05/03 12:05:28;;;;;;;6.10;4.50;;;;;;;;;;5094159;28;20487;-58
2021/05/03 12:08:15;;;;;;;5.87;3.90;;;;;;;;;;5093875;28;20439;-57
2021/05/03 12:10:44;;;;;;;6.30;4.20;;;;;;;;;;5078108;28;20485;-47
2021/05/03 12:13:14;;;;;;;8.20;4.37;;;;;;;;;;5075744;28;20510;-58
2021/05/03 12:15:43;;;;;;;8.30;4.77;;;;;;;;;;5074376;28;20640;-58
2021/05/03 12:18:09;;;;;;;10.40;4.07;;;;;;;;;;5075213;28;20548;-58
2021/05/03 12:20:53;;;;;;;5.20;3.70;;;;;;;;;;5074353;28;20449;-59
2021/05/03 12:23:25;;;;;;;11.33;3.70;;;;;;;;;;5075097;28;20469;-61
2021/05/03 12:25:54;;;;;;;4.30;3.13;;;;;;;;;;5074338;28;20461;-60
2021/05/03 12:28:22;;;;;;;8.80;5.07;;;;;;;;;;5074204;28;20516;-58
2021/05/03 12:30:49;;;;;;;4.23;2.93;;;;;;;;;;5073995;28;20515;-60
2021/05/03 12:33:18;;;;;;;6.00;3.47;;;;;;;;;;5074121;28;20444;-58
2021/05/03 12:35:49;;;;;;;5.70;3.40;;;;;;;;;;5074770;28;20453;-61
2021/05/03 12:38:17;;;;;;;4.20;2.53;;;;;;;;;;5072950;28;20489;-53
2021/05/03 12:40:44;;;;;;;4.40;2.90;;;;;;;;;;5073092;28;20610;-57
2021/05/03 12:43:22;;;;;;;7.47;3.93;;;;;;;;;;5073507;28;20523;-55
2021/05/03 12:46:02;;;;;;;4.40;2.70;;;;;;;;;;5080992;28;20495;-51
2021/05/03 12:48:32;;;;;;;5.50;3.50;;;;;;;;;;5073366;28;20464;-56
2021/05/03 12:56:37;;;;;;;4.87;3.53;;;;;;;;;;5092217;28;20531;-56
2021/05/03 12:59:21;;;;;;;6.43;3.80;;;;;;;;;;5090363;28;20542;-61
2021/05/03 13:02:19;;;;;;;7.50;3.10;;;;;;;;;;5078692;28;20460;-59
2021/05/03 13:05:09;;;;;;;3.87;2.37;;;;;;;;;;5082878;28;20465;-59
2021/05/03 13:07:56;;;;;;;4.77;2.70;;;;;;;;;;5073116;28;20466;-57
2021/05/03 13:22:38;;;;;;;6.20;3.20;;;;;;;;;;5093551;28;20454;-61
2021/05/03 13:25:36;;;;;;;4.87;3.17;;;;;;;;;;5091027;28;20470;-61
2021/05/03 13:28:12;;;;;;;6.43;2.77;;;;;;;;;;5089970;28;20480;-59
2021/05/03 13:30:46;;;;;;;5.63;2.70;;;;;;;;;;5091773;28;20489;-59
2021/05/03 13:33:14;;;;;;;7.47;3.70;;;;;;;;;;5092547;28;20529;-55
2021/05/03 13:35:41;;;;;;;4.20;2.73;;;;;;;;;;5092790;28;20859;-57
2021/05/03 13:38:27;;;;;;;5.93;3.23;;;;;;;;;;5093073;28;20527;-52
2021/05/03 13:40:54;;;;;;;6.17;2.80;;;;;;;;;;5093832;28;20456;-54
2021/05/03 13:43:22;;;;;;;6.87;2.60;;;;;;;;;;5091240;28;20881;-59
2021/05/03 13:46:03;;;;;;;10.17;3.97;;;;;;;;;;5091483;28;20559;-60
2021/05/03 13:48:31;;;;;;;5.30;3.50;;;;;;;;;;5082885;28;20448;-58
2021/05/03 13:50:58;;;;;;;7.20;3.97;;;;;;;;;;5091888;28;20479;-54
2021/05/03 13:53:25;;;;;;;4.93;3.13;;;;;;;;;;5073621;28;20461;-58
2021/05/03 13:55:54;;;;;;;5.73;3.00;;;;;;;;;;5077818;28;20494;-57
2021/05/03 13:58:32;;;;;;;8.23;3.30;;;;;;;;;;5076605;28;20488;-60
2021/05/03 14:00:59;;;;;;;4.90;3.70;;;;;;;;;;5091300;28;20455;-60
2021/05/03 14:03:26;;;;;;;4.80;3.70;;;;;;;;;;5091165;28;20724;-59
2021/05/03 14:05:53;;;;;;;5.60;2.13;;;;;;;;;;5092252;28;20452;-50
2021/05/03 14:08:20;;;;;;;6.60;2.83;;;;;;;;;;5091034;28;20455;-55
2021/05/03 14:10:59;;;;;;;5.17;2.60;;;;;;;;;;5091253;28;20456;-57
2021/05/03 14:13:27;;;;;;;4.57;2.50;;;;;;;;;;5090958;28;20483;-60
2021/05/03 14:15:54;;;;;;;4.13;2.63;;;;;;;;;;5091691;28;20452;-57
2021/05/03 14:18:24;;;;;;;6.80;2.80;;;;;;;;;;5090487;28;20541;-61
2021/05/03 14:20:51;;;;;;;3.67;2.60;;;;;;;;;;5074536;28;20495;-56
2021/05/03 14:23:19;;;;;;;4.10;3.10;;;;;;;;;;5072328;28;20544;-58
2021/05/03 14:25:49;;;;;;;5.00;2.77;;;;;;;;;;5070363;28;20513;-57
2021/05/03 14:28:21;;;;;;;6.23;3.60;;;;;;;;;;5070158;28;20477;-56
2021/05/03 14:30:53;;;;;;;8.73;3.80;;;;;;;;;;5071319;28;20426;-56
2021/05/03 14:33:21;;;;;;;6.00;3.07;;;;;;;;;;5061633;28;20512;-54
2021/05/03 14:35:48;;;;;;;5.80;3.00;;;;;;;;;;5072306;28;20479;-58
2021/05/03 14:43:45;;;;;;;4.40;2.47;;;;;;;;;;5076640;28;20499;-54
2021/05/03 14:46:15;;;;;;;4.07;2.23;;;;;;;;;;5091632;28;20206;-56
2021/05/03 14:48:54;;;;;;;8.10;2.70;;;;;;;;;;5090778;28;20507;-56
2021/05/03 14:51:49;;;;;;;4.80;2.33;;;;;;;;;;5073777;28;20493;-57
2021/05/03 14:57:18;;;;;;;7.10;2.50;;;;;;;;;;5089095;28;20413;-62
2021/05/03 14:59:45;;;;;;;4.27;2.80;;;;;;;;;;5091109;28;20432;-59
2021/05/03 15:02:26;;;;;;;6.67;2.60;;;;;;;;;;5092553;28;20467;-59
2021/05/03 15:04:53;;;;;;;4.90;3.20;;;;;;;;;;5091928;28;20523;-52
2021/05/03 15:07:25;;;;;;;8.27;3.20;;;;;;;;;;5090772;28;20472;-56
2021/05/03 15:09:52;;;;;;;5.83;3.17;;;;;;;;;;5088596;28;20453;-62
2021/05/03 15:12:20;;;;;;;5.53;2.40;;;;;;;;;;5090025;28;20468;-57
2021/05/03 15:15:01;;;;;;;3.97;2.07;;;;;;;;;;5093381;28;20460;-60
2021/05/03 15:17:38;;;;;;;3.30;2.10;;;;;;;;;;5089208;28;20479;-60
2021/05/03 15:20:25;;;;;;;4.80;2.40;;;;;;;;;;5088004;28;20460;-51
2021/05/03 15:22:52;;;;;;;3.67;2.50;;;;;;;;;;5081286;28;20517;-56
2021/05/03 15:25:19;;;;;;;4.93;3.00;;;;;;;;;;5091645;28;20464;-55
2021/05/03 15:28:03;;;;;;;6.93;3.03;;;;;;;;;;5090586;28;20436;-56
2021/05/03 15:30:55;;;;;;;5.23;3.10;;;;;;;;;;5087384;28;20548;-61
2021/05/03 15:33:34;;;;;;;3.50;2.20;;;;;;;;;;5090053;28;20549;-60
2021/05/03 15:36:06;;;;;;;5.30;3.00;;;;;;;;;;5080710;28;20444;-56
2021/05/03 15:38:44;;;;;;;7.10;2.40;;;;;;;;;;5095096;28;20475;-56
2021/05/03 15:41:35;;;;;;;6.00;2.70;;;;;;;;;;5092867;28;20436;-52
2021/05/03 15:44:03;;;;;;;6.07;2.70;;;;;;;;;;5082034;28;20481;-56
2021/05/03 15:46:47;;;;;;;4.60;2.60;;;;;;;;;;5093552;28;20464;-59
2021/05/03 15:49:17;;;;;;;3.80;2.50;;;;;;;;;;5095710;28;20468;-59
2021/05/03 15:51:44;;;;;;;4.43;2.50;;;;;;;;;;5094458;28;20467;-56
2021/05/03 15:54:11;;;;;;;4.73;2.53;;;;;;;;;;5096021;28;20436;-59
2021/05/03 15:56:38;;;;;;;5.03;3.13;;;;;;;;;;5095141;28;20452;-59
2021/05/03 15:59:05;;;;;;;4.70;2.90;;;;;;;;;;5095235;28;20522;-57